Time;durP1;ratioP1;P1;durP2;ratioP2;P2;SDS_P1;SDS_P2;PMS_P1;PMS_P2;Temp;Humidity;BMP_temperature;BMP_pressure;BME280_temperature;BME280_humidity;BME280_pressure;Samples;Min_cycle;Max_cycle;Signal;HPM_P1;HPM_P2
2023/06/21 00:01:38;;;;;;;;;;;;;;;26.00;48.13;100357.41;5404511;32;35895;-77
2023/06/21 00:04:40;;;;;;;;;;;;;;;25.79;48.56;100352.41;5379500;32;34349;-74
2023/06/21 00:07:44;;;;;;;;;;;;;;;25.98;47.95;100345.97;5411722;32;35097;-78
2023/06/21 00:10:46;;;;;;;;;;;;;;;25.70;48.89;100342.59;5404183;32;34176;-75
2023/06/21 00:13:49;;;;;;;;;;;;;;;25.87;48.30;100333.59;5392335;32;34355;-76
2023/06/21 00:16:51;;;;;;;;;;;;;;;26.29;46.82;100327.41;5404711;32;34314;-75
2023/06/21 00:19:54;;;;;;;;;;;;;;;25.80;48.11;100340.62;5393062;32;35566;-74
2023/06/21 00:22:56;;;;;;;;;;;;;;;26.13;47.51;100340.81;5405258;32;34257;-78
2023/06/21 00:25:58;;;;;;;;;;;;;;;25.83;48.50;100340.34;5403620;32;34063;-75
2023/06/21 00:29:00;;;;;;;;;;;;;;;25.30;49.54;100351.19;5408112;32;34187;-76
2023/06/21 00:32:02;;;;;;;;;;;;;;;25.03;50.21;100338.66;5390279;32;34491;-74
2023/06/21 00:35:04;;;;;;;;;;;;;;;25.11;50.55;100344.12;5407539;32;34446;-75
2023/06/21 00:38:07;;;;;;;;;;;;;;;25.71;49.05;100338.87;5389245;32;34287;-77
2023/06/21 00:41:09;;;;;;;;;;;;;;;25.26;49.85;100344.44;5405232;32;34284;-77
2023/06/21 00:44:11;;;;;;;;;;;;;;;24.35;52.76;100349.03;5386880;32;34202;-75
2023/06/21 00:47:13;;;;;;;;;;;;;;;25.34;50.46;100352.56;5405779;32;35238;-76
2023/06/21 00:50:15;;;;;;;;;;;;;;;24.59;52.49;100352.81;5407512;32;34239;-77
2023/06/21 00:53:17;;;;;;;;;;;;;;;25.56;50.04;100357.44;5401606;32;34326;-77
2023/06/21 00:56:19;;;;;;;;;;;;;;;24.47;53.08;100361.22;5381281;32;35431;-78
2023/06/21 00:59:21;;;;;;;;;;;;;;;24.97;51.33;100361.63;5401281;32;34484;-75
2023/06/21 01:02:23;;;;;;;;;;;;;;;24.60;52.83;100364.41;5381282;32;33301;-74
2023/06/21 01:05:25;;;;;;;;;;;;;;;24.22;54.05;100369.00;5377733;32;36045;-77
2023/06/21 01:08:27;;;;;;;;;;;;;;;23.82;55.31;100361.19;5400064;32;34447;-75
2023/06/21 01:11:30;;;;;;;;;;;;;;;23.79;55.27;100364.19;5407412;32;35347;-75
2023/06/21 01:14:56;;;;;;;;;;;;;;;24.07;54.37;100365.06;5401077;32;34131;-75
2023/06/21 01:17:59;;;;;;;;;;;;;;;24.58;52.79;100361.88;5386086;32;34217;-75
2023/06/21 01:21:03;;;;;;;;;;;;;;;24.89;52.28;100364.22;5397261;32;34281;-78
2023/06/21 01:24:06;;;;;;;;;;;;;;;24.27;53.92;100358.63;5404916;32;34251;-76
2023/06/21 01:27:27;;;;;;;;;;;;;;;24.41;53.60;100359.16;5405957;32;34433;-78
2023/06/21 01:30:30;;;;;;;;;;;;;;;24.13;54.66;100361.78;5401345;32;35624;-75
2023/06/21 01:33:32;;;;;;;;;;;;;;;23.65;56.20;100362.81;5399817;32;34266;-75
2023/06/21 01:36:34;;;;;;;;;;;;;;;24.18;54.83;100362.22;5401218;32;35362;-77
2023/06/21 01:39:36;;;;;;;;;;;;;;;24.21;54.81;100363.75;5398554;32;34304;-76
2023/06/21 01:42:39;;;;;;;;;;;;;;;24.13;55.25;100360.97;5373560;32;34301;-74
2023/06/21 01:45:41;;;;;;;;;;;;;;;24.00;55.74;100358.59;5402275;32;36666;-77
2023/06/21 01:48:43;;;;;;;;;;;;;;;24.57;54.04;100352.13;5393824;32;34263;-75
2023/06/21 01:51:45;;;;;;;;;;;;;;;23.87;56.28;100353.56;5403686;32;35383;-77
2023/06/21 01:54:47;;;;;;;;;;;;;;;23.69;56.64;100357.97;5396853;32;34198;-76
2023/06/21 01:57:51;;;;;;;;;;;;;;;24.51;54.13;100360.78;5375573;32;34259;-76
2023/06/21 02:00:53;;;;;;;;;;;;;;;24.95;52.59;100358.25;5402248;32;35396;-78
2023/06/21 02:03:56;;;;;;;;;;;;;;;24.45;54.00;100369.44;5374881;32;34306;-75
2023/06/21 02:06:58;;;;;;;;;;;;;;;22.95;58.78;100377.34;5389303;32;35817;-74
2023/06/21 02:10:00;;;;;;;;;;;;;;;24.16;55.34;100371.41;5393185;32;32961;-77
2023/06/21 02:13:02;;;;;;;;;;;;;;;23.32;57.50;100376.66;5375601;32;35542;-77
2023/06/21 02:16:04;;;;;;;;;;;;;;;23.20;57.96;100373.28;5404142;32;34971;-76
2023/06/21 02:19:07;;;;;;;;;;;;;;;23.56;56.72;100369.00;5402754;32;34337;-75
2023/06/21 02:22:09;;;;;;;;;;;;;;;23.32;57.34;100374.00;5404139;32;35452;-77
2023/06/21 02:25:12;;;;;;;;;;;;;;;23.82;55.95;100374.62;5404161;32;34235;-75
2023/06/21 02:28:16;;;;;;;;;;;;;;;23.35;57.07;100371.84;5387505;32;34386;-75
2023/06/21 02:31:19;;;;;;;;;;;;;;;23.48;56.51;100374.25;5391711;32;34084;-75
2023/06/21 02:34:21;;;;;;;;;;;;;;;23.41;56.70;100375.81;5401278;32;34160;-77
2023/06/21 02:37:24;;;;;;;;;;;;;;;24.03;54.22;100377.97;5407809;32;35403;-76
2023/06/21 02:40:25;;;;;;;;;;;;;;;23.87;54.55;100376.88;5401016;32;34373;-77
2023/06/21 02:43:28;;;;;;;;;;;;;;;23.35;56.19;100371.00;5397650;32;35468;-75
2023/06/21 02:46:30;;;;;;;;;;;;;;;23.30;56.22;100373.25;5389541;32;34347;-75
2023/06/21 02:49:36;;;;;;;;;;;;;;;23.56;55.27;100370.84;5390431;32;34130;-75
2023/06/21 02:52:38;;;;;;;;;;;;;;;23.42;55.34;100370.28;5407990;32;35062;-77
2023/06/21 02:55:40;;;;;;;;;;;;;;;23.89;54.34;100377.56;5403971;32;34706;-77
2023/06/21 02:58:42;;;;;;;;;;;;;;;23.37;55.41;100367.19;5408525;32;34924;-76
2023/06/21 03:01:46;;;;;;;;;;;;;;;23.07;56.73;100368.19;5403559;32;34942;-74
2023/06/21 03:04:48;;;;;;;;;;;;;;;23.06;56.59;100366.50;5405301;32;34355;-75
2023/06/21 03:07:50;;;;;;;;;;;;;;;23.08;56.58;100371.72;5407211;32;35536;-77
2023/06/21 03:10:52;;;;;;;;;;;;;;;22.96;57.28;100371.00;5404667;32;35366;-78
2023/06/21 03:13:55;;;;;;;;;;;;;;;23.42;55.94;100372.13;5408016;32;34113;-75
2023/06/21 03:16:57;;;;;;;;;;;;;;;23.19;56.77;100367.06;5406907;32;34446;-78
2023/06/21 03:19:59;;;;;;;;;;;;;;;24.04;54.05;100371.59;5404709;32;34340;-78
2023/06/21 03:23:01;;;;;;;;;;;;;;;23.58;55.36;100369.72;5405256;32;34271;-75
2023/06/21 03:26:03;;;;;;;;;;;;;;;23.35;55.97;100371.00;5399879;32;34656;-75
2023/06/21 03:29:06;;;;;;;;;;;;;;;23.82;54.56;100374.62;5405960;32;34152;-75
2023/06/21 03:32:08;;;;;;;;;;;;;;;23.12;56.75;100378.47;5402691;32;35552;-76
2023/06/21 03:35:10;;;;;;;;;;;;;;;23.14;56.78;100374.69;5407758;32;34422;-77
2023/06/21 03:38:12;;;;;;;;;;;;;;;23.31;56.30;100374.94;5405183;32;34766;-77
2023/06/21 03:41:14;;;;;;;;;;;;;;;23.88;54.63;100367.81;5402347;32;34443;-75
2023/06/21 03:44:16;;;;;;;;;;;;;;;23.94;54.02;100356.50;5399076;32;34478;-75
2023/06/21 03:47:18;;;;;;;;;;;;;;;23.08;56.85;100364.53;5404271;32;35044;-77
2023/06/21 03:50:21;;;;;;;;;;;;;;;22.90;57.36;100364.38;5408932;32;35964;-75
2023/06/21 03:53:27;;;;;;;;;;;;;;;23.48;55.90;100356.31;5402368;32;34131;-75
2023/06/21 03:56:29;;;;;;;;;;;;;;;23.10;56.92;100357.19;5383171;32;34391;-77
2023/06/21 03:59:31;;;;;;;;;;;;;;;23.77;55.11;100358.13;5403556;32;34314;-78
2023/06/21 04:02:33;;;;;;;;;;;;;;;24.38;52.95;100356.78;5394205;32;34347;-75
2023/06/21 04:05:35;;;;;;;;;;;;;;;24.20;53.18;100368.25;5389125;32;34823;-77
2023/06/21 04:08:37;;;;;;;;;;;;;;;23.21;56.33;100373.13;5403922;32;35455;-74
2023/06/21 04:11:39;;;;;;;;;;;;;;;23.46;55.49;100382.44;5409064;32;34350;-76
2023/06/21 04:14:41;;;;;;;;;;;;;;;23.19;56.04;100372.44;5401408;32;34393;-77
2023/06/21 04:17:43;;;;;;;;;;;;;;;23.77;54.69;100369.72;5410151;32;34618;-76
2023/06/21 04:20:46;;;;;;;;;;;;;;;24.43;52.41;100363.41;5401711;32;34575;-76
2023/06/21 04:23:48;;;;;;;;;;;;;;;24.40;52.42;100368.19;5406743;32;34615;-75
2023/06/21 04:26:50;;;;;;;;;;;;;;;23.90;53.52;100387.34;5390604;32;38283;-77
2023/06/21 04:29:52;;;;;;;;;;;;;;;24.02;53.46;100384.31;5405858;32;34165;-75
2023/06/21 04:32:54;;;;;;;;;;;;;;;24.57;52.05;100391.59;5408503;32;35428;-75
2023/06/21 04:35:57;;;;;;;;;;;;;;;24.32;52.91;100401.16;5402737;32;35460;-78
2023/06/21 04:38:59;;;;;;;;;;;;;;;24.57;51.94;100402.34;5404889;32;34923;-75
2023/06/21 04:42:02;;;;;;;;;;;;;;;24.09;52.72;100418.59;5397341;32;34391;-74
2023/06/21 04:45:05;;;;;;;;;;;;;;;24.91;50.42;100428.59;5405428;32;35659;-74
2023/06/21 04:48:07;;;;;;;;;;;;;;;24.49;50.77;100431.81;5403051;32;35624;-78
2023/06/21 04:51:12;;;;;;;;;;;;;;;24.42;51.16;100436.06;5403133;32;37226;-76
2023/06/21 04:54:14;;;;;;;;;;;;;;;24.95;50.06;100432.69;5406312;32;34614;-78
2023/06/21 04:57:16;;;;;;;;;;;;;;;25.58;48.43;100438.03;5401683;32;34387;-76
2023/06/21 05:00:19;;;;;;;;;;;;;;;25.86;47.63;100445.00;5392979;32;35624;-76
2023/06/21 05:03:21;;;;;;;;;;;;;;;25.57;47.93;100434.50;5399110;32;35128;-77
2023/06/21 05:06:24;;;;;;;;;;;;;;;25.30;48.57;100434.56;5406119;32;34537;-77
2023/06/21 05:09:26;;;;;;;;;;;;;;;25.51;47.97;100436.97;5403516;32;34291;-76
2023/06/21 05:12:28;;;;;;;;;;;;;;;25.98;46.63;100431.28;5387075;32;34025;-78
2023/06/21 05:15:30;;;;;;;;;;;;;;;25.62;47.69;100429.47;5409724;32;34806;-70
2023/06/21 05:18:32;;;;;;;;;;;;;;;25.60;48.28;100428.78;5403428;32;35383;-78
2023/06/21 05:21:34;;;;;;;;;;;;;;;25.91;47.78;100423.00;5380466;32;34352;-80
2023/06/21 05:24:37;;;;;;;;;;;;;;;25.70;48.11;100417.06;5377233;32;34055;-78
2023/06/21 05:27:39;;;;;;;;;;;;;;;26.59;45.43;100406.03;5399039;32;34686;-78
2023/06/21 05:30:42;;;;;;;;;;;;;;;26.92;44.60;100402.44;5404030;32;34677;-79
2023/06/21 05:33:44;;;;;;;;;;;;;;;27.86;42.19;100409.25;5400800;32;32701;-79
2023/06/21 05:36:46;;;;;;;;;;;;;;;27.95;42.14;100410.06;5405544;32;34363;-82
2023/06/21 05:39:48;;;;;;;;;;;;;;;28.16;41.86;100410.37;5398269;32;34265;-78
2023/06/21 05:42:50;;;;;;;;;;;;;;;28.84;40.01;100403.50;5402808;32;36124;-83
2023/06/21 05:45:52;;;;;;;;;;;;;;;28.83;40.19;100421.59;5370343;32;34437;-84
2023/06/21 05:48:54;;;;;;;;;;;;;;;28.81;39.65;100426.38;5338942;32;34234;-82
2023/06/21 05:51:56;;;;;;;;;;;;;;;29.13;39.25;100427.22;5367816;32;34095;-81
2023/06/21 05:54:58;;;;;;;;;;;;;;;28.90;39.81;100426.31;5365976;32;37027;-81
2023/06/21 05:58:00;;;;;;;;;;;;;;;28.75;39.50;100426.22;5362292;32;34505;-81
2023/06/21 06:01:03;;;;;;;;;;;;;;;30.72;36.21;100413.50;5361693;32;35586;-78
2023/06/21 06:04:25;;;;;;;;;;;;;;;28.68;40.08;100420.69;5364886;32;35504;-75
2023/06/21 06:07:27;;;;;;;;;;;;;;;29.49;38.30;100422.03;5359674;32;34309;-69
2023/06/21 06:10:29;;;;;;;;;;;;;;;30.59;36.31;100426.87;5359997;32;34476;-73
2023/06/21 06:13:31;;;;;;;;;;;;;;;30.69;36.11;100420.16;5362402;32;34428;-83
2023/06/21 06:16:33;;;;;;;;;;;;;;;31.70;34.65;100417.47;5348776;32;33657;-73
2023/06/21 06:19:35;;;;;;;;;;;;;;;31.49;34.53;100412.88;5339801;32;34381;-75
2023/06/21 06:22:37;;;;;;;;;;;;;;;31.71;34.58;100417.25;5347956;32;33311;-77
2023/06/21 06:25:40;;;;;;;;;;;;;;;30.87;35.46;100413.50;5363323;32;35268;-76
2023/06/21 06:28:42;;;;;;;;;;;;;;;33.06;31.92;100399.63;5361880;32;36175;-74
2023/06/21 06:31:44;;;;;;;;;;;;;;;32.64;32.67;100420.59;5364642;32;34701;-84
2023/06/21 06:34:46;;;;;;;;;;;;;;;33.49;31.81;100423.78;5367980;32;34064;-78
2023/06/21 06:37:48;;;;;;;;;;;;;;;33.66;32.23;100422.31;5365994;32;34104;-71
2023/06/21 06:40:53;;;;;;;;;;;;;;;33.15;32.07;100409.25;5361359;32;34120;-80
2023/06/21 06:43:55;;;;;;;;;;;;;;;33.74;31.02;100402.19;5367468;32;36177;-72
2023/06/21 06:46:57;;;;;;;;;;;;;;;32.28;34.32;100408.06;5368595;32;35690;-74
2023/06/21 06:50:02;;;;;;;;;;;;;;;35.44;28.99;100403.69;5369306;32;35340;-82
2023/06/21 06:53:05;;;;;;;;;;;;;;;34.04;30.86;100408.06;5365292;32;35317;-71
2023/06/21 06:56:08;;;;;;;;;;;;;;;32.69;33.08;100415.38;5365899;32;34672;-72
2023/06/21 06:59:13;;;;;;;;;;;;;;;33.39;32.35;100411.41;5363494;32;34189;-76
2023/06/21 07:02:15;;;;;;;;;;;;;;;34.47;30.59;100409.22;5365359;32;34506;-73
2023/06/21 07:05:17;;;;;;;;;;;;;;;34.97;29.90;100406.72;5366529;32;34377;-76
2023/06/21 07:08:19;;;;;;;;;;;;;;;36.33;27.65;100399.69;5367582;32;34052;-71
2023/06/21 07:11:21;;;;;;;;;;;;;;;35.48;29.33;100394.81;5354872;32;34536;-84
2023/06/21 07:14:23;;;;;;;;;;;;;;;33.84;31.94;100410.78;5355769;32;34811;-72
2023/06/21 07:17:26;;;;;;;;;;;;;;;34.60;30.87;100407.50;5366081;32;35466;-76
2023/06/21 07:20:29;;;;;;;;;;;;;;;34.44;30.93;100409.66;5364083;32;36534;-80
2023/06/21 07:23:32;;;;;;;;;;;;;;;36.76;27.76;100396.84;5355736;32;33182;-79
2023/06/21 07:26:34;;;;;;;;;;;;;;;36.67;27.77;100400.97;5345510;32;34171;-76
2023/06/21 07:29:36;;;;;;;;;;;;;;;34.97;30.53;100394.94;5363766;32;35504;-73
2023/06/21 07:32:38;;;;;;;;;;;;;;;35.11;30.32;100399.28;5366124;32;34347;-71
2023/06/21 07:35:40;;;;;;;;;;;;;;;35.82;29.05;100395.38;5364475;32;33403;-80
2023/06/21 07:38:46;;;;;;;;;;;;;;;35.38;29.62;100389.00;5366217;32;34302;-87
2023/06/21 07:41:48;;;;;;;;;;;;;;;36.75;27.27;100386.13;5354407;32;35944;-69
2023/06/21 07:44:57;;;;;;;;;;;;;;;37.12;27.27;100390.44;5354330;32;35649;-77
2023/06/21 07:47:59;;;;;;;;;;;;;;;36.66;27.97;100388.34;5363500;32;33961;-75
2023/06/21 07:51:01;;;;;;;;;;;;;;;38.45;25.36;100393.63;5364048;32;35073;-75
2023/06/21 07:54:03;;;;;;;;;;;;;;;35.79;28.89;100404.00;5355791;32;34146;-75
2023/06/21 07:57:05;;;;;;;;;;;;;;;36.30;28.56;100394.66;5350367;32;34767;-82
2023/06/21 08:00:14;;;;;;;;;;;;;;;35.57;29.71;100389.09;5356374;32;34317;-79
2023/06/21 08:03:18;;;;;;;;;;;;;;;36.77;27.80;100397.66;5342258;32;34037;-82
2023/06/21 08:06:21;;;;;;;;;;;;;;;36.49;28.24;100393.63;5351656;32;35853;-78
2023/06/21 08:09:23;;;;;;;;;;;;;;;38.81;25.30;100386.13;5353590;32;34254;-75
2023/06/21 08:12:25;;;;;;;;;;;;;;;37.29;27.49;100378.81;5341005;32;34110;-72
2023/06/21 08:15:27;;;;;;;;;;;;;;;38.88;25.29;100364.84;5355209;32;34088;-74
2023/06/21 08:18:30;;;;;;;;;;;;;;;37.58;26.97;100377.09;5351460;32;34576;-72
2023/06/21 08:21:32;;;;;;;;;;;;;;;37.38;27.02;100380.19;5357405;32;34835;-75
2023/06/21 08:24:34;;;;;;;;;;;;;;;37.89;26.21;100389.66;5337500;32;35263;-72
2023/06/21 08:27:36;;;;;;;;;;;;;;;37.70;26.59;100382.59;5345927;32;36957;-75
2023/06/21 08:30:42;;;;;;;;;;;;;;;39.53;23.35;100384.38;5325489;32;32717;-78
2023/06/21 08:33:44;;;;;;;;;;;;;;;39.90;23.28;100396.81;5339673;32;34364;-71
2023/06/21 08:36:46;;;;;;;;;;;;;;;36.78;27.15;100399.37;5355625;32;36455;-74
2023/06/21 08:39:52;;;;;;;;;;;;;;;36.91;26.80;100398.38;5353098;32;34340;-77
2023/06/21 08:42:55;;;;;;;;;;;;;;;38.63;24.73;100400.84;5348817;32;34799;-72
2023/06/21 08:45:57;;;;;;;;;;;;;;;37.46;26.47;100399.00;5332814;32;36592;-75
2023/06/21 08:49:01;;;;;;;;;;;;;;;37.31;26.35;100404.09;5351331;32;35555;-82
2023/06/21 08:52:03;;;;;;;;;;;;;;;37.07;26.51;100412.22;5351498;32;36384;-82
2023/06/21 08:55:05;;;;;;;;;;;;;;;37.85;25.87;100404.91;5347887;32;34871;-71
2023/06/21 08:58:14;;;;;;;;;;;;;;;38.33;25.09;100412.88;5352400;32;35037;-78
2023/06/21 09:01:18;;;;;;;;;;;;;;;38.60;24.37;100415.06;5351771;32;37271;-81
2023/06/21 09:04:20;;;;;;;;;;;;;;;37.62;25.83;100412.03;5352364;32;36203;-80
2023/06/21 09:07:22;;;;;;;;;;;;;;;40.06;22.66;100404.22;5352329;32;35561;-77
2023/06/21 09:10:28;;;;;;;;;;;;;;;38.15;25.36;100413.84;5354736;32;36498;-81
2023/06/21 09:13:34;;;;;;;;;;;;;;;38.60;24.76;100409.59;5351178;32;35232;-75
2023/06/21 09:16:39;;;;;;;;;;;;;;;40.31;22.23;100401.78;5356687;32;33307;-81
2023/06/21 09:19:42;;;;;;;;;;;;;;;40.36;22.14;100409.28;5361910;32;34231;-75
2023/06/21 09:22:46;;;;;;;;;;;;;;;40.03;22.67;100391.81;5353596;32;35676;-76
2023/06/21 09:25:56;;;;;;;;;;;;;;;41.34;20.88;100399.13;5359248;32;33424;-81
2023/06/21 09:29:01;;;;;;;;;;;;;;;40.43;22.09;100392.59;5346352;32;34329;-72
2023/06/21 09:32:03;;;;;;;;;;;;;;;38.92;24.04;100401.72;5348401;32;35277;-73
2023/06/21 09:35:05;;;;;;;;;;;;;;;39.99;22.89;100389.78;5362889;32;33951;-72
2023/06/21 09:38:28;;;;;;;;;;;;;;;38.65;24.79;100402.28;5354548;32;35716;-80
2023/06/21 09:41:30;;;;;;;;;;;;;;;37.68;26.17;100404.75;5349152;32;34221;-74
2023/06/21 09:44:33;;;;;;;;;;;;;;;36.64;27.89;100412.38;5347086;32;34269;-75
2023/06/21 09:47:35;;;;;;;;;;;;;;;36.02;28.89;100412.44;5356028;32;35570;-75
2023/06/21 09:50:43;;;;;;;;;;;;;;;36.32;28.60;100419.87;5359826;32;34345;-88
2023/06/21 09:53:50;;;;;;;;;;;;;;;36.35;28.79;100422.19;5352347;32;35488;-76
2023/06/21 09:56:53;;;;;;;;;;;;;;;35.68;29.69;100422.00;5346741;32;34448;-83
2023/06/21 09:59:55;;;;;;;;;;;;;;;35.28;30.23;100413.22;5361315;32;35301;-79
2023/06/21 10:02:59;;;;;;;;;;;;;;;36.16;28.91;100413.13;5353836;32;34228;-74
2023/06/21 10:06:03;;;;;;;;;;;;;;;35.50;30.44;100417.31;5352503;32;36451;-72
2023/06/21 10:09:09;;;;;;;;;;;;;;;37.45;27.50;100408.31;5355648;32;34025;-80
2023/06/21 10:12:11;;;;;;;;;;;;;;;36.92;27.93;100411.00;5349633;32;34434;-81
2023/06/21 10:15:14;;;;;;;;;;;;;;;36.04;29.45;100420.41;5355441;32;37999;-71
2023/06/21 10:18:16;;;;;;;;;;;;;;;35.61;30.32;100414.88;5362211;32;36242;-74
2023/06/21 10:21:19;;;;;;;;;;;;;;;35.62;30.96;100411.94;5355811;32;34500;-73
2023/06/21 10:24:21;;;;;;;;;;;;;;;34.62;32.38;100421.75;5348887;32;35160;-77
2023/06/21 10:27:23;;;;;;;;;;;;;;;34.71;32.23;100415.81;5347499;32;33984;-76
2023/06/21 10:30:26;;;;;;;;;;;;;;;36.01;29.99;100418.16;5342946;32;34970;-75
2023/06/21 10:33:30;;;;;;;;;;;;;;;35.56;30.76;100414.75;5352976;32;34496;-74
2023/06/21 10:36:35;;;;;;;;;;;;;;;34.87;31.73;100421.84;5352753;32;32686;-83
2023/06/21 10:39:40;;;;;;;;;;;;;;;36.20;29.60;100416.25;5359223;32;36551;-75
2023/06/21 10:42:43;;;;;;;;;;;;;;;35.40;30.45;100421.53;5348942;32;34927;-73
2023/06/21 10:45:45;;;;;;;;;;;;;;;34.07;32.55;100438.50;5357527;32;33481;-76
2023/06/21 10:48:47;;;;;;;;;;;;;;;34.21;32.61;100442.84;5369903;32;34377;-80
2023/06/21 10:51:49;;;;;;;;;;;;;;;35.47;30.32;100436.87;5361363;32;34168;-73
2023/06/21 10:54:57;;;;;;;;;;;;;;;34.44;32.06;100442.38;5348167;32;34158;-82
2023/06/21 10:58:01;;;;;;;;;;;;;;;33.95;32.60;100440.19;5353894;32;34987;-75
2023/06/21 11:01:04;;;;;;;;;;;;;;;34.64;31.34;100446.94;5356245;32;34233;-80
2023/06/21 11:04:06;;;;;;;;;;;;;;;35.12;31.23;100449.28;5356588;32;34033;-81
2023/06/21 11:07:08;;;;;;;;;;;;;;;35.07;31.49;100440.91;5354716;32;34239;-76
2023/06/21 11:10:13;;;;;;;;;;;;;;;35.28;31.45;100446.00;5353458;32;34696;-73
2023/06/21 11:13:15;;;;;;;;;;;;;;;35.17;31.50;100430.34;5362288;32;34805;-74
2023/06/21 11:16:18;;;;;;;;;;;;;;;34.57;33.19;100446.97;5352001;32;35088;-87
2023/06/21 11:19:21;;;;;;;;;;;;;;;34.36;33.61;100442.59;5363898;32;34244;-73
2023/06/21 11:22:26;;;;;;;;;;;;;;;34.42;33.47;100447.22;5353308;32;34199;-84
2023/06/21 11:25:29;;;;;;;;;;;;;;;33.67;34.84;100441.19;5361551;32;35909;-80
2023/06/21 11:28:32;;;;;;;;;;;;;;;35.29;32.07;100442.22;5364228;32;34283;-76
2023/06/21 11:31:37;;;;;;;;;;;;;;;36.50;30.23;100435.50;5354085;32;34272;-76
2023/06/21 11:35:08;;;;;;;;;;;;;;;37.10;29.31;100433.69;5363950;32;34353;-74
2023/06/21 11:38:10;;;;;;;;;;;;;;;38.87;26.92;100420.84;5355076;32;35529;-70
2023/06/21 11:41:48;;;;;;;;;;;;;;;39.59;26.01;100418.31;5357827;32;35649;-75
2023/06/21 11:44:50;;;;;;;;;;;;;;;40.27;24.95;100417.19;5320568;32;34115;-70
2023/06/21 11:48:08;;;;;;;;;;;;;;;38.92;26.64;100423.72;5359185;32;34202;-80
2023/06/21 11:51:11;;;;;;;;;;;;;;;37.27;28.99;100424.78;5363441;32;34372;-72
2023/06/21 11:54:13;;;;;;;;;;;;;;;35.96;30.87;100412.50;5365597;32;35885;-82
2023/06/21 11:57:17;;;;;;;;;;;;;;;35.47;32.00;100408.69;5352150;32;34421;-69
2023/06/21 12:00:20;;;;;;;;;;;;;;;36.26;30.22;100391.56;5347705;32;35829;-70
2023/06/21 12:03:25;;;;;;;;;;;;;;;35.89;31.32;100398.88;5353760;32;34189;-82
2023/06/21 12:06:28;;;;;;;;;;;;;;;37.16;29.29;100393.53;5353145;32;35507;-69
2023/06/21 12:09:30;;;;;;;;;;;;;;;36.04;31.23;100396.63;5358355;32;34223;-69
2023/06/21 12:12:36;;;;;;;;;;;;;;;35.56;31.33;100387.41;5347526;32;35714;-69
2023/06/21 12:15:53;;;;;;;;;;;;;;;36.92;29.60;100387.19;5361630;32;34464;-78
2023/06/21 12:18:57;;;;;;;;;;;;;;;36.98;29.26;100385.41;5365942;32;36412;-71
2023/06/21 12:22:01;;;;;;;;;;;;;;;35.73;31.22;100383.03;5360355;32;36136;-67
2023/06/21 12:25:05;;;;;;;;;;;;;;;35.98;31.50;100385.75;5363081;32;34476;-77
2023/06/21 12:28:07;;;;;;;;;;;;;;;35.94;31.12;100384.53;5362236;32;34220;-75
2023/06/21 12:31:15;;;;;;;;;;;;;;;35.30;32.46;100385.72;5367470;32;35473;-83
2023/06/21 12:34:18;;;;;;;;;;;;;;;35.52;31.37;100396.03;5348952;32;35048;-73
2023/06/21 12:37:23;;;;;;;;;;;;;;;35.16;32.83;100396.69;5353312;32;35417;-79
2023/06/21 12:40:25;;;;;;;;;;;;;;;34.98;32.56;100400.19;5354122;32;36802;-73
2023/06/21 12:43:37;;;;;;;;;;;;;;;35.87;30.87;100392.78;5360373;32;35348;-76
2023/06/21 12:46:39;;;;;;;;;;;;;;;34.82;33.37;100405.28;5364652;32;34203;-74
2023/06/21 12:49:45;;;;;;;;;;;;;;;35.70;31.68;100389.78;5366861;32;34768;-75
2023/06/21 12:53:01;;;;;;;;;;;;;;;35.21;31.97;100385.94;5370059;32;35141;-75
2023/06/21 12:56:07;;;;;;;;;;;;;;;35.31;32.36;100380.00;5367005;32;33312;-79
2023/06/21 12:59:11;;;;;;;;;;;;;;;35.15;32.96;100383.28;5363967;32;33817;-69
2023/06/21 13:02:13;;;;;;;;;;;;;;;35.46;32.37;100375.06;5366848;32;35699;-73
2023/06/21 13:05:15;;;;;;;;;;;;;;;36.45;29.82;100366.94;5366061;32;36617;-73
2023/06/21 13:08:17;;;;;;;;;;;;;;;35.81;30.39;100361.72;5364467;32;34449;-72
2023/06/21 13:11:20;;;;;;;;;;;;;;;34.92;31.91;100370.19;5362225;32;33960;-75
2023/06/21 13:14:22;;;;;;;;;;;;;;;36.10;30.08;100366.69;5347870;32;34234;-72
2023/06/21 13:17:24;;;;;;;;;;;;;;;35.70;31.04;100365.19;5356688;32;36999;-71
2023/06/21 13:20:26;;;;;;;;;;;;;;;35.71;30.64;100355.94;5361712;32;34408;-73
2023/06/21 13:23:29;;;;;;;;;;;;;;;35.42;30.21;100356.59;5365205;32;35582;-75
2023/06/21 13:26:31;;;;;;;;;;;;;;;34.97;30.83;100348.50;5367564;32;34652;-73
2023/06/21 13:29:33;;;;;;;;;;;;;;;35.06;31.54;100352.66;5367553;32;35387;-75
2023/06/21 13:32:38;;;;;;;;;;;;;;;36.02;30.63;100355.00;5357254;32;35491;-69
2023/06/21 13:35:41;;;;;;;;;;;;;;;34.43;32.98;100358.87;5354592;32;35383;-73
2023/06/21 13:38:43;;;;;;;;;;;;;;;35.09;31.66;100351.38;5365376;32;34534;-75
2023/06/21 13:41:45;;;;;;;;;;;;;;;36.08;30.14;100339.59;5345649;32;35540;-76
2023/06/21 13:44:47;;;;;;;;;;;;;;;36.64;29.18;100346.66;5352452;32;34345;-76
2023/06/21 13:47:50;;;;;;;;;;;;;;;36.51;28.61;100339.47;5347832;32;34318;-76
2023/06/21 13:50:52;;;;;;;;;;;;;;;36.18;28.95;100325.34;5358663;32;36019;-79
2023/06/21 13:53:55;;;;;;;;;;;;;;;35.18;30.98;100325.47;5359573;32;34307;-80
2023/06/21 13:56:57;;;;;;;;;;;;;;;35.96;29.80;100330.47;5361547;32;32913;-70
2023/06/21 13:59:59;;;;;;;;;;;;;;;35.89;29.84;100335.97;5367606;32;35399;-75
2023/06/21 14:03:01;;;;;;;;;;;;;;;35.82;30.31;100329.75;5365588;32;34259;-74
2023/06/21 14:06:03;;;;;;;;;;;;;;;34.48;32.03;100336.41;5361144;32;34472;-75
2023/06/21 14:09:05;;;;;;;;;;;;;;;35.77;30.15;100322.22;5344258;32;36567;-73
2023/06/21 14:12:08;;;;;;;;;;;;;;;36.35;29.47;100326.41;5367026;32;34122;-86
2023/06/21 14:15:11;;;;;;;;;;;;;;;35.48;30.28;100323.75;5360021;32;34238;-87
2023/06/21 14:18:12;;;;;;;;;;;;;;;35.19;30.93;100321.69;5361042;32;33916;-78
2023/06/21 14:21:15;;;;;;;;;;;;;;;34.68;31.45;100333.56;5365436;32;35518;-69
2023/06/21 14:24:17;;;;;;;;;;;;;;;35.17;30.92;100337.47;5359277;32;34755;-72
2023/06/21 14:27:19;;;;;;;;;;;;;;;35.17;30.21;100348.41;5368542;32;34421;-73
2023/06/21 14:30:21;;;;;;;;;;;;;;;34.78;30.69;100353.03;5356725;32;34191;-71
2023/06/21 14:33:23;;;;;;;;;;;;;;;34.87;30.67;100359.06;5346900;32;34301;-85
2023/06/21 14:36:26;;;;;;;;;;;;;;;34.94;30.65;100360.72;5384467;32;36688;-84
2023/06/21 14:39:28;;;;;;;;;;;;;;;34.73;30.90;100363.78;5380341;32;35268;-71
2023/06/21 14:42:30;;;;;;;;;;;;;;;35.70;29.39;100353.44;5397622;32;34421;-70
2023/06/21 14:45:32;;;;;;;;;;;;;;;35.06;30.86;100360.84;5399562;32;35416;-70
2023/06/21 14:48:35;;;;;;;;;;;;;;;34.87;30.66;100359.91;5404913;32;35107;-71
2023/06/21 14:51:38;;;;;;;;;;;;;;;35.49;29.86;100365.59;5400988;32;34328;-70
2023/06/21 14:54:41;;;;;;;;;;;;;;;35.04;30.67;100382.09;5387033;32;34253;-81
2023/06/21 14:57:43;;;;;;;;;;;;;;;35.24;30.45;100379.22;5400928;32;34495;-69
2023/06/21 15:00:45;;;;;;;;;;;;;;;34.95;30.75;100375.22;5401205;32;34296;-84
2023/06/21 15:03:47;;;;;;;;;;;;;;;34.66;30.76;100374.72;5405428;32;34201;-70
2023/06/21 15:06:49;;;;;;;;;;;;;;;34.08;32.18;100377.44;5401651;32;35429;-83
2023/06/21 15:09:53;;;;;;;;;;;;;;;34.53;32.13;100388.44;5407634;32;34392;-70
2023/06/21 15:12:55;;;;;;;;;;;;;;;34.83;31.72;100382.38;5403561;32;34348;-70
2023/06/21 15:16:03;;;;;;;;;;;;;;;34.29;32.75;100378.22;5408146;32;35127;-70
2023/06/21 15:19:05;;;;;;;;;;;;;;;34.20;32.86;100380.34;5408300;32;34392;-70
2023/06/21 15:22:07;;;;;;;;;;;;;;;34.19;32.66;100362.28;5405139;32;34933;-82
2023/06/21 15:25:12;;;;;;;;;;;;;;;34.09;33.17;100359.19;5380778;32;897919;-70
2023/06/21 15:28:14;;;;;;;;;;;;;;;34.42;32.03;100354.47;5389657;32;33993;-69
2023/06/21 15:31:16;;;;;;;;;;;;;;;34.39;31.90;100357.62;5409621;32;33241;-82
2023/06/21 15:34:19;;;;;;;;;;;;;;;34.50;31.93;100347.09;5406756;32;34304;-71
2023/06/21 15:37:20;;;;;;;;;;;;;;;34.11;32.51;100333.38;5407069;32;34351;-70
2023/06/21 15:40:22;;;;;;;;;;;;;;;34.98;31.11;100342.84;5407218;32;35343;-70